sensor_id;sensor_type;location;lat;lon;timestamp;pressure;altitude;pressure_sealevel;temperature;humidity
67740;BME280;54536;50.090;14.420;2024-01-07T00:02:00;98879.31;;;6.22;58.65
67740;BME280;54536;50.090;14.420;2024-01-07T00:04:26;98880.81;;;6.24;58.61
67740;BME280;54536;50.090;14.420;2024-01-07T00:06:52;98883.41;;;6.36;58.29
67740;BME280;54536;50.090;14.420;2024-01-07T00:09:18;98884.16;;;6.26;58.53
67740;BME280;54536;50.090;14.420;2024-01-07T00:11:44;98891.25;;;6.24;58.02
67740;BME280;54536;50.090;14.420;2024-01-07T00:14:11;98886.16;;;6.23;57.92
67740;BME280;54536;50.090;14.420;2024-01-07T00:16:37;98887.81;;;6.24;58.31
67740;BME280;54536;50.090;14.420;2024-01-07T00:19:03;98887.38;;;6.19;58.21
67740;BME280;54536;50.090;14.420;2024-01-07T00:21:29;98894.97;;;5.99;59.69
67740;BME280;54536;50.090;14.420;2024-01-07T00:23:55;98886.81;;;5.93;58.20
67740;BME280;54536;50.090;14.420;2024-01-07T00:26:21;98894.72;;;5.80;58.50
67740;BME280;54536;50.090;14.420;2024-01-07T00:28:47;98889.19;;;5.96;59.04
67740;BME280;54536;50.090;14.420;2024-01-07T00:31:13;98896.63;;;5.89;58.25
67740;BME280;54536;50.090;14.420;2024-01-07T00:33:40;98903.72;;;5.87;58.89
67740;BME280;54536;50.090;14.420;2024-01-07T00:36:06;98909.75;;;5.87;58.83
67740;BME280;54536;50.090;14.420;2024-01-07T00:38:33;98914.53;;;5.94;58.84
67740;BME280;54536;50.090;14.420;2024-01-07T00:40:58;98912.66;;;5.96;58.40
67740;BME280;54536;50.090;14.420;2024-01-07T00:43:25;98908.72;;;5.90;58.26
67740;BME280;54536;50.090;14.420;2024-01-07T00:45:51;98913.22;;;5.77;58.15
67740;BME280;54536;50.090;14.420;2024-01-07T00:48:17;98914.63;;;5.81;58.71
67740;BME280;54536;50.090;14.420;2024-01-07T00:50:43;98914.53;;;5.82;57.91
67740;BME280;54536;50.090;14.420;2024-01-07T00:53:10;98915.56;;;5.69;58.41
67740;BME280;54536;50.090;14.420;2024-01-07T00:55:36;98925.06;;;5.70;58.49
67740;BME280;54536;50.090;14.420;2024-01-07T00:58:02;98924.56;;;5.64;58.16
67740;BME280;54536;50.090;14.420;2024-01-07T01:00:28;98929.47;;;5.69;58.58
67740;BME280;54536;50.090;14.420;2024-01-07T01:02:55;98932.16;;;5.68;58.05
67740;BME280;54536;50.090;14.420;2024-01-07T01:05:22;98929.44;;;5.58;58.06
67740;BME280;54536;50.090;14.420;2024-01-07T01:07:48;98931.66;;;5.51;58.84
67740;BME280;54536;50.090;14.420;2024-01-07T01:10:14;98935.38;;;5.60;58.55
67740;BME280;54536;50.090;14.420;2024-01-07T01:12:43;98941.38;;;5.49;58.23
67740;BME280;54536;50.090;14.420;2024-01-07T01:15:10;98939.50;;;5.51;60.38
67740;BME280;54536;50.090;14.420;2024-01-07T01:17:36;98940.00;;;5.56;58.95
67740;BME280;54536;50.090;14.420;2024-01-07T01:20:02;98942.72;;;5.66;58.40
67740;BME280;54536;50.090;14.420;2024-01-07T01:22:29;98939.25;;;5.66;58.95
67740;BME280;54536;50.090;14.420;2024-01-07T01:24:55;98942.00;;;5.64;58.57
67740;BME280;54536;50.090;14.420;2024-01-07T01:27:22;98941.41;;;5.60;59.16
67740;BME280;54536;50.090;14.420;2024-01-07T01:29:48;98942.91;;;5.52;58.16
67740;BME280;54536;50.090;14.420;2024-01-07T01:32:14;98949.69;;;5.54;58.10
67740;BME280;54536;50.090;14.420;2024-01-07T01:34:40;98945.75;;;5.37;57.75
67740;BME280;54536;50.090;14.420;2024-01-07T01:37:08;98944.59;;;5.53;58.42
67740;BME280;54536;50.090;14.420;2024-01-07T01:39:35;98945.97;;;5.46;58.47
67740;BME280;54536;50.090;14.420;2024-01-07T01:42:01;98946.78;;;5.35;59.03
67740;BME280;54536;50.090;14.420;2024-01-07T01:44:27;98951.91;;;5.36;58.52
67740;BME280;54536;50.090;14.420;2024-01-07T01:46:55;98947.31;;;5.40;58.71
67740;BME280;54536;50.090;14.420;2024-01-07T01:49:22;98953.06;;;5.32;58.68
67740;BME280;54536;50.090;14.420;2024-01-07T01:51:49;98956.50;;;5.33;57.46
67740;BME280;54536;50.090;14.420;2024-01-07T01:54:16;98962.06;;;5.28;58.09
67740;BME280;54536;50.090;14.420;2024-01-07T01:56:43;98949.25;;;5.25;58.15
67740;BME280;54536;50.090;14.420;2024-01-07T01:59:11;98951.84;;;5.25;57.54
67740;BME280;54536;50.090;14.420;2024-01-07T02:01:39;98955.75;;;5.20;57.90
67740;BME280;54536;50.090;14.420;2024-01-07T02:04:05;98956.09;;;5.15;56.75
67740;BME280;54536;50.090;14.420;2024-01-07T02:06:32;98964.03;;;5.13;57.07
67740;BME280;54536;50.090;14.420;2024-01-07T02:08:58;98961.47;;;5.25;57.15
67740;BME280;54536;50.090;14.420;2024-01-07T02:11:25;98954.66;;;5.11;57.29
67740;BME280;54536;50.090;14.420;2024-01-07T02:13:51;98954.16;;;5.06;56.34
67740;BME280;54536;50.090;14.420;2024-01-07T02:16:17;98962.03;;;5.17;56.16
67740;BME280;54536;50.090;14.420;2024-01-07T02:18:45;98958.31;;;5.08;55.66
67740;BME280;54536;50.090;14.420;2024-01-07T02:21:13;98960.97;;;4.96;55.79
67740;BME280;54536;50.090;14.420;2024-01-07T02:23:40;98966.53;;;4.91;56.74
67740;BME280;54536;50.090;14.420;2024-01-07T02:26:07;98968.22;;;5.03;55.97
67740;BME280;54536;50.090;14.420;2024-01-07T02:28:34;98971.25;;;4.86;56.17
67740;BME280;54536;50.090;14.420;2024-01-07T02:31:00;98970.28;;;4.87;56.83
67740;BME280;54536;50.090;14.420;2024-01-07T02:33:26;98972.66;;;4.90;56.19
67740;BME280;54536;50.090;14.420;2024-01-07T02:35:54;98971.75;;;4.91;56.56
67740;BME280;54536;50.090;14.420;2024-01-07T02:38:20;98985.34;;;4.70;56.08
67740;BME280;54536;50.090;14.420;2024-01-07T02:40:46;98980.72;;;4.87;57.51
67740;BME280;54536;50.090;14.420;2024-01-07T02:43:12;98981.22;;;4.92;55.85
67740;BME280;54536;50.090;14.420;2024-01-07T02:45:38;98989.63;;;4.72;56.55
67740;BME280;54536;50.090;14.420;2024-01-07T02:48:05;98984.25;;;4.86;56.81
67740;BME280;54536;50.090;14.420;2024-01-07T02:50:32;98983.53;;;4.84;56.72
67740;BME280;54536;50.090;14.420;2024-01-07T02:52:58;98982.25;;;4.89;57.26
67740;BME280;54536;50.090;14.420;2024-01-07T02:55:24;98986.59;;;4.78;56.71
67740;BME280;54536;50.090;14.420;2024-01-07T02:57:50;98986.91;;;4.73;56.37
67740;BME280;54536;50.090;14.420;2024-01-07T03:00:17;98989.34;;;4.63;57.80
67740;BME280;54536;50.090;14.420;2024-01-07T03:02:43;98990.44;;;4.48;58.30
67740;BME280;54536;50.090;14.420;2024-01-07T03:05:09;98990.78;;;4.67;59.16
67740;BME280;54536;50.090;14.420;2024-01-07T03:07:37;98989.56;;;4.60;57.89
67740;BME280;54536;50.090;14.420;2024-01-07T03:10:05;98984.56;;;4.57;58.53
67740;BME280;54536;50.090;14.420;2024-01-07T03:12:31;98989.16;;;4.54;58.98
67740;BME280;54536;50.090;14.420;2024-01-07T03:14:57;98994.53;;;4.63;58.56
67740;BME280;54536;50.090;14.420;2024-01-07T03:17:23;98996.66;;;4.58;59.17
67740;BME280;54536;50.090;14.420;2024-01-07T03:19:50;98996.44;;;4.61;59.49
67740;BME280;54536;50.090;14.420;2024-01-07T03:22:16;98999.69;;;4.52;58.99
67740;BME280;54536;50.090;14.420;2024-01-07T03:24:42;98992.38;;;4.57;58.62
67740;BME280;54536;50.090;14.420;2024-01-07T03:27:08;98993.44;;;4.55;58.72
67740;BME280;54536;50.090;14.420;2024-01-07T03:29:35;98984.25;;;4.62;58.51
67740;BME280;54536;50.090;14.420;2024-01-07T03:32:02;98999.75;;;4.63;58.40
67740;BME280;54536;50.090;14.420;2024-01-07T03:34:28;98999.50;;;4.42;57.52
67740;BME280;54536;50.090;14.420;2024-01-07T03:36:54;98995.19;;;4.54;57.37
67740;BME280;54536;50.090;14.420;2024-01-07T03:39:20;99006.97;;;4.47;58.10
67740;BME280;54536;50.090;14.420;2024-01-07T03:41:46;99004.16;;;4.50;56.84
67740;BME280;54536;50.090;14.420;2024-01-07T03:44:13;99003.13;;;4.53;57.73
67740;BME280;54536;50.090;14.420;2024-01-07T03:46:38;99009.16;;;4.53;56.70
67740;BME280;54536;50.090;14.420;2024-01-07T03:49:05;99016.47;;;4.48;56.26
67740;BME280;54536;50.090;14.420;2024-01-07T03:51:31;99013.13;;;4.46;56.64
67740;BME280;54536;50.090;14.420;2024-01-07T03:53:57;99015.81;;;4.44;57.72
67740;BME280;54536;50.090;14.420;2024-01-07T03:56:23;99015.22;;;4.41;56.45
67740;BME280;54536;50.090;14.420;2024-01-07T03:58:52;99019.16;;;4.46;56.80
67740;BME280;54536;50.090;14.420;2024-01-07T04:01:18;99015.81;;;4.44;56.01
67740;BME280;54536;50.090;14.420;2024-01-07T04:03:45;99014.50;;;4.39;56.85
67740;BME280;54536;50.090;14.420;2024-01-07T04:06:11;99014.78;;;4.47;57.60
67740;BME280;54536;50.090;14.420;2024-01-07T04:08:37;99017.50;;;4.45;56.85
67740;BME280;54536;50.090;14.420;2024-01-07T04:11:03;99027.53;;;4.26;56.24
67740;BME280;54536;50.090;14.420;2024-01-07T04:13:29;99026.69;;;4.26;56.12
67740;BME280;54536;50.090;14.420;2024-01-07T04:15:55;99026.91;;;4.22;57.52
67740;BME280;54536;50.090;14.420;2024-01-07T04:18:22;99020.34;;;4.17;56.63
67740;BME280;54536;50.090;14.420;2024-01-07T04:20:48;99027.41;;;4.28;56.79
67740;BME280;54536;50.090;14.420;2024-01-07T04:23:14;99026.09;;;4.22;56.29
67740;BME280;54536;50.090;14.420;2024-01-07T04:25:40;99028.03;;;4.18;56.54
67740;BME280;54536;50.090;14.420;2024-01-07T04:28:08;99033.88;;;4.09;56.18
67740;BME280;54536;50.090;14.420;2024-01-07T04:30:35;99034.72;;;4.10;56.18
67740;BME280;54536;50.090;14.420;2024-01-07T04:33:03;99036.56;;;4.20;56.29
67740;BME280;54536;50.090;14.420;2024-01-07T04:35:29;99034.19;;;4.17;56.90
67740;BME280;54536;50.090;14.420;2024-01-07T04:37:55;99038.34;;;4.20;56.47
67740;BME280;54536;50.090;14.420;2024-01-07T04:40:21;99038.88;;;4.12;56.99
67740;BME280;54536;50.090;14.420;2024-01-07T04:42:48;99043.16;;;4.13;56.17
67740;BME280;54536;50.090;14.420;2024-01-07T04:45:14;99050.53;;;4.07;56.37
67740;BME280;54536;50.090;14.420;2024-01-07T04:47:40;99051.34;;;4.07;57.15
67740;BME280;54536;50.090;14.420;2024-01-07T04:50:06;99048.03;;;3.92;57.23
67740;BME280;54536;50.090;14.420;2024-01-07T04:52:33;99062.19;;;4.14;56.88
67740;BME280;54536;50.090;14.420;2024-01-07T04:54:59;99064.69;;;4.15;56.78
67740;BME280;54536;50.090;14.420;2024-01-07T04:57:25;99064.69;;;4.15;56.92
67740;BME280;54536;50.090;14.420;2024-01-07T04:59:52;99067.50;;;4.12;56.59
67740;BME280;54536;50.090;14.420;2024-01-07T05:02:18;99074.69;;;4.09;57.52
67740;BME280;54536;50.090;14.420;2024-01-07T05:04:44;99071.78;;;4.26;55.96
67740;BME280;54536;50.090;14.420;2024-01-07T05:07:10;99073.22;;;4.17;56.27
67740;BME280;54536;50.090;14.420;2024-01-07T05:09:36;99071.03;;;4.11;56.06
67740;BME280;54536;50.090;14.420;2024-01-07T05:12:03;99073.13;;;4.06;57.10
67740;BME280;54536;50.090;14.420;2024-01-07T05:14:29;99064.91;;;3.99;55.99
67740;BME280;54536;50.090;14.420;2024-01-07T05:16:55;99073.63;;;3.98;56.55
67740;BME280;54536;50.090;14.420;2024-01-07T05:19:21;99073.72;;;3.97;56.30
67740;BME280;54536;50.090;14.420;2024-01-07T05:21:48;99077.16;;;3.97;56.60
67740;BME280;54536;50.090;14.420;2024-01-07T05:24:14;99085.91;;;3.96;57.05
67740;BME280;54536;50.090;14.420;2024-01-07T05:26:44;99084.75;;;4.01;56.78
67740;BME280;54536;50.090;14.420;2024-01-07T05:29:11;99095.56;;;3.94;57.52
67740;BME280;54536;50.090;14.420;2024-01-07T05:31:39;99095.38;;;3.97;56.79
67740;BME280;54536;50.090;14.420;2024-01-07T05:34:06;99096.81;;;3.89;57.44
67740;BME280;54536;50.090;14.420;2024-01-07T05:36:32;99104.28;;;3.81;56.99
67740;BME280;54536;50.090;14.420;2024-01-07T05:38:58;99104.72;;;3.87;56.86
67740;BME280;54536;50.090;14.420;2024-01-07T05:41:25;99107.88;;;3.92;57.21
67740;BME280;54536;50.090;14.420;2024-01-07T05:43:51;99111.97;;;3.82;57.79
67740;BME280;54536;50.090;14.420;2024-01-07T05:46:17;99112.41;;;3.76;57.24
67740;BME280;54536;50.090;14.420;2024-01-07T05:48:45;99108.03;;;3.77;57.51
67740;BME280;54536;50.090;14.420;2024-01-07T05:51:13;99113.94;;;3.79;56.67
67740;BME280;54536;50.090;14.420;2024-01-07T05:53:40;99110.69;;;3.62;57.84
67740;BME280;54536;50.090;14.420;2024-01-07T05:56:07;99107.38;;;3.60;57.46
67740;BME280;54536;50.090;14.420;2024-01-07T05:58:33;99105.34;;;3.51;57.89
67740;BME280;54536;50.090;14.420;2024-01-07T06:01:00;99120.94;;;3.51;57.46
67740;BME280;54536;50.090;14.420;2024-01-07T06:03:26;99133.75;;;3.54;58.09
67740;BME280;54536;50.090;14.420;2024-01-07T06:05:53;99123.63;;;3.49;58.90
67740;BME280;54536;50.090;14.420;2024-01-07T06:08:19;99129.88;;;3.47;58.86
67740;BME280;54536;50.090;14.420;2024-01-07T06:10:45;99128.16;;;3.60;58.25
67740;BME280;54536;50.090;14.420;2024-01-07T06:13:11;99137.69;;;3.47;58.55
67740;BME280;54536;50.090;14.420;2024-01-07T06:15:38;99139.91;;;3.39;59.14
67740;BME280;54536;50.090;14.420;2024-01-07T06:18:04;99146.63;;;3.28;60.00
67740;BME280;54536;50.090;14.420;2024-01-07T06:20:30;99146.50;;;3.44;58.68
67740;BME280;54536;50.090;14.420;2024-01-07T06:22:56;99156.13;;;3.57;58.77
67740;BME280;54536;50.090;14.420;2024-01-07T06:25:22;99153.72;;;3.54;58.59
67740;BME280;54536;50.090;14.420;2024-01-07T06:27:52;99160.19;;;3.61;58.24
67740;BME280;54536;50.090;14.420;2024-01-07T06:30:18;99161.25;;;3.44;57.68
67740;BME280;54536;50.090;14.420;2024-01-07T06:32:45;99159.78;;;3.67;58.44
67740;BME280;54536;50.090;14.420;2024-01-07T06:35:11;99166.16;;;3.48;58.38
67740;BME280;54536;50.090;14.420;2024-01-07T06:37:37;99167.56;;;3.40;57.77
67740;BME280;54536;50.090;14.420;2024-01-07T06:40:04;99172.88;;;3.38;57.58
67740;BME280;54536;50.090;14.420;2024-01-07T06:42:30;99177.13;;;3.39;57.26
67740;BME280;54536;50.090;14.420;2024-01-07T06:44:56;99185.00;;;3.52;58.73
67740;BME280;54536;50.090;14.420;2024-01-07T06:47:22;99186.66;;;3.53;58.12
67740;BME280;54536;50.090;14.420;2024-01-07T06:49:49;99184.53;;;3.60;58.16
67740;BME280;54536;50.090;14.420;2024-01-07T06:52:15;99187.75;;;3.63;58.00
67740;BME280;54536;50.090;14.420;2024-01-07T06:54:41;99192.22;;;3.61;57.63
67740;BME280;54536;50.090;14.420;2024-01-07T06:57:07;99188.53;;;3.51;57.48
67740;BME280;54536;50.090;14.420;2024-01-07T06:59:33;99204.69;;;3.42;57.41
67740;BME280;54536;50.090;14.420;2024-01-07T07:01:59;99214.00;;;3.32;57.00
67740;BME280;54536;50.090;14.420;2024-01-07T07:04:25;99220.78;;;3.34;57.62
67740;BME280;54536;50.090;14.420;2024-01-07T07:06:52;99217.16;;;3.22;57.21
67740;BME280;54536;50.090;14.420;2024-01-07T07:09:18;99218.09;;;3.21;57.18
67740;BME280;54536;50.090;14.420;2024-01-07T07:11:44;99219.19;;;3.32;57.43
67740;BME280;54536;50.090;14.420;2024-01-07T07:14:11;99222.63;;;3.32;57.24
67740;BME280;54536;50.090;14.420;2024-01-07T07:16:37;99228.66;;;3.18;58.30
67740;BME280;54536;50.090;14.420;2024-01-07T07:19:03;99234.03;;;3.29;58.28
67740;BME280;54536;50.090;14.420;2024-01-07T07:21:29;99237.75;;;3.25;58.04
67740;BME280;54536;50.090;14.420;2024-01-07T07:23:55;99247.78;;;3.32;58.15
67740;BME280;54536;50.090;14.420;2024-01-07T07:26:22;99246.84;;;3.33;57.86
67740;BME280;54536;50.090;14.420;2024-01-07T07:28:49;99255.91;;;3.40;58.39
67740;BME280;54536;50.090;14.420;2024-01-07T07:31:15;99264.75;;;3.37;56.71
67740;BME280;54536;50.090;14.420;2024-01-07T07:33:41;99271.53;;;3.54;57.34
67740;BME280;54536;50.090;14.420;2024-01-07T07:36:07;99264.19;;;3.46;57.30
67740;BME280;54536;50.090;14.420;2024-01-07T07:38:34;99267.19;;;3.40;55.36
67740;BME280;54536;50.090;14.420;2024-01-07T07:41:00;99268.53;;;3.46;56.77
67740;BME280;54536;50.090;14.420;2024-01-07T07:43:26;99270.31;;;3.45;55.96
67740;BME280;54536;50.090;14.420;2024-01-07T07:45:52;99272.25;;;3.56;55.41
67740;BME280;54536;50.090;14.420;2024-01-07T07:48:19;99269.25;;;3.62;57.59
67740;BME280;54536;50.090;14.420;2024-01-07T07:50:45;99277.19;;;3.61;56.79
67740;BME280;54536;50.090;14.420;2024-01-07T07:53:12;99274.47;;;3.62;56.21
67740;BME280;54536;50.090;14.420;2024-01-07T07:55:38;99270.78;;;3.52;55.34
67740;BME280;54536;50.090;14.420;2024-01-07T07:58:04;99278.75;;;3.49;56.67
67740;BME280;54536;50.090;14.420;2024-01-07T08:00:30;99280.81;;;3.44;55.86
67740;BME280;54536;50.090;14.420;2024-01-07T08:02:56;99280.63;;;3.47;55.72
67740;BME280;54536;50.090;14.420;2024-01-07T08:05:22;99290.91;;;3.48;55.98
67740;BME280;54536;50.090;14.420;2024-01-07T08:07:48;99289.72;;;3.54;54.92
67740;BME280;54536;50.090;14.420;2024-01-07T08:10:14;99296.69;;;3.39;54.88
67740;BME280;54536;50.090;14.420;2024-01-07T08:12:41;99296.50;;;3.42;55.58
67740;BME280;54536;50.090;14.420;2024-01-07T08:15:07;99300.22;;;3.38;54.67
67740;BME280;54536;50.090;14.420;2024-01-07T08:17:34;99301.22;;;3.36;55.64
67740;BME280;54536;50.090;14.420;2024-01-07T08:20:00;99300.50;;;3.48;55.13
67740;BME280;54536;50.090;14.420;2024-01-07T08:22:27;99309.41;;;3.44;55.42
67740;BME280;54536;50.090;14.420;2024-01-07T08:24:53;99307.91;;;3.54;54.76
67740;BME280;54536;50.090;14.420;2024-01-07T08:27:20;99312.81;;;3.59;56.26
67740;BME280;54536;50.090;14.420;2024-01-07T08:29:45;99316.53;;;3.55;54.57
67740;BME280;54536;50.090;14.420;2024-01-07T08:32:12;99314.69;;;3.42;53.95
67740;BME280;54536;50.090;14.420;2024-01-07T08:34:38;99328.03;;;3.36;54.24
67740;BME280;54536;50.090;14.420;2024-01-07T08:37:07;99337.53;;;3.37;54.32
67740;BME280;54536;50.090;14.420;2024-01-07T08:39:34;99335.84;;;3.36;54.29
67740;BME280;54536;50.090;14.420;2024-01-07T08:42:00;99343.56;;;3.52;55.30
67740;BME280;54536;50.090;14.420;2024-01-07T08:44:26;99341.31;;;3.46;54.82
67740;BME280;54536;50.090;14.420;2024-01-07T08:46:52;99347.75;;;3.40;54.43
67740;BME280;54536;50.090;14.420;2024-01-07T08:49:18;99344.03;;;3.44;55.02
67740;BME280;54536;50.090;14.420;2024-01-07T08:51:44;99344.28;;;3.40;54.83
67740;BME280;54536;50.090;14.420;2024-01-07T08:54:10;99345.22;;;3.24;55.10
67740;BME280;54536;50.090;14.420;2024-01-07T08:56:36;99355.53;;;3.40;55.43
67740;BME280;54536;50.090;14.420;2024-01-07T08:59:02;99367.59;;;3.41;54.39
67740;BME280;54536;50.090;14.420;2024-01-07T09:01:30;99360.53;;;3.29;54.47
67740;BME280;54536;50.090;14.420;2024-01-07T09:03:56;99357.22;;;3.41;54.28
67740;BME280;54536;50.090;14.420;2024-01-07T09:06:22;99366.97;;;3.38;54.37
67740;BME280;54536;50.090;14.420;2024-01-07T09:08:48;99360.00;;;3.38;54.73
67740;BME280;54536;50.090;14.420;2024-01-07T09:11:14;99365.75;;;3.43;54.81
67740;BME280;54536;50.090;14.420;2024-01-07T09:13:41;99357.84;;;3.45;54.23
67740;BME280;54536;50.090;14.420;2024-01-07T09:16:08;99370.38;;;3.38;54.88
67740;BME280;54536;50.090;14.420;2024-01-07T09:18:36;99366.78;;;3.41;54.65
67740;BME280;54536;50.090;14.420;2024-01-07T09:21:03;99366.56;;;3.29;54.37
67740;BME280;54536;50.090;14.420;2024-01-07T09:23:29;99372.34;;;3.35;55.08
67740;BME280;54536;50.090;14.420;2024-01-07T09:25:55;99367.22;;;3.33;54.48
67740;BME280;54536;50.090;14.420;2024-01-07T09:28:21;99376.41;;;3.39;54.06
67740;BME280;54536;50.090;14.420;2024-01-07T09:30:47;99380.97;;;3.35;54.24
67740;BME280;54536;50.090;14.420;2024-01-07T09:33:13;99389.75;;;3.33;54.58
67740;BME280;54536;50.090;14.420;2024-01-07T09:35:41;99383.06;;;3.14;54.02
67740;BME280;54536;50.090;14.420;2024-01-07T09:38:09;99384.56;;;3.33;54.49
67740;BME280;54536;50.090;14.420;2024-01-07T09:40:38;99381.25;;;3.31;53.36
67740;BME280;54536;50.090;14.420;2024-01-07T09:43:04;99381.72;;;3.37;53.73
67740;BME280;54536;50.090;14.420;2024-01-07T09:45:30;99387.44;;;3.28;53.27
67740;BME280;54536;50.090;14.420;2024-01-07T09:47:56;99389.59;;;3.36;54.31
67740;BME280;54536;50.090;14.420;2024-01-07T09:50:23;99381.13;;;3.32;53.73
67740;BME280;54536;50.090;14.420;2024-01-07T09:52:53;99389.50;;;3.37;53.07
67740;BME280;54536;50.090;14.420;2024-01-07T09:55:33;99383.97;;;3.43;54.08
67740;BME280;54536;50.090;14.420;2024-01-07T09:57:59;99378.66;;;3.45;53.07
67740;BME280;54536;50.090;14.420;2024-01-07T10:00:27;99388.75;;;3.35;53.45
67740;BME280;54536;50.090;14.420;2024-01-07T10:02:53;99381.53;;;3.40;53.20
67740;BME280;54536;50.090;14.420;2024-01-07T10:05:20;99378.75;;;3.43;53.14
67740;BME280;54536;50.090;14.420;2024-01-07T10:07:46;99381.91;;;3.48;53.45
67740;BME280;54536;50.090;14.420;2024-01-07T10:10:16;99379.28;;;3.34;53.60
67740;BME280;54536;50.090;14.420;2024-01-07T10:12:46;99383.38;;;3.38;55.00
67740;BME280;54536;50.090;14.420;2024-01-07T10:15:13;99382.72;;;3.35;53.67
67740;BME280;54536;50.090;14.420;2024-01-07T10:17:43;99379.78;;;3.41;54.20
67740;BME280;54536;50.090;14.420;2024-01-07T10:20:11;99386.34;;;3.46;54.85
67740;BME280;54536;50.090;14.420;2024-01-07T10:22:39;99380.88;;;3.51;53.18
67740;BME280;54536;50.090;14.420;2024-01-07T10:25:06;99382.09;;;3.45;52.31
67740;BME280;54536;50.090;14.420;2024-01-07T10:27:36;99373.06;;;3.37;53.60
67740;BME280;54536;50.090;14.420;2024-01-07T10:30:04;99388.47;;;3.40;53.76
67740;BME280;54536;50.090;14.420;2024-01-07T10:32:30;99380.78;;;3.38;53.14
67740;BME280;54536;50.090;14.420;2024-01-07T10:35:04;99386.03;;;3.22;51.90
67740;BME280;54536;50.090;14.420;2024-01-07T10:37:33;99390.75;;;3.16;51.65
67740;BME280;54536;50.090;14.420;2024-01-07T10:40:00;99399.84;;;3.09;51.68
67740;BME280;54536;50.090;14.420;2024-01-07T10:42:33;99408.16;;;2.99;52.35
67740;BME280;54536;50.090;14.420;2024-01-07T10:45:00;99406.63;;;3.11;51.25
67740;BME280;54536;50.090;14.420;2024-01-07T10:47:31;99406.81;;;3.08;51.26
67740;BME280;54536;50.090;14.420;2024-01-07T10:49:59;99404.28;;;3.07;51.49
67740;BME280;54536;50.090;14.420;2024-01-07T10:52:27;99408.41;;;3.11;50.84
67740;BME280;54536;50.090;14.420;2024-01-07T10:54:57;99411.00;;;3.25;51.18
67740;BME280;54536;50.090;14.420;2024-01-07T11:00:24;99413.13;;;3.18;51.26
67740;BME280;54536;50.090;14.420;2024-01-07T11:03:24;99407.00;;;3.19;50.93
67740;BME280;54536;50.090;14.420;2024-01-07T11:06:16;99407.75;;;3.21;50.76
67740;BME280;54536;50.090;14.420;2024-01-07T11:08:55;99398.56;;;3.16;50.55
67740;BME280;54536;50.090;14.420;2024-01-07T11:11:27;99400.53;;;3.26;51.10
67740;BME280;54536;50.090;14.420;2024-01-07T11:13:58;99394.66;;;3.23;51.54
67740;BME280;54536;50.090;14.420;2024-01-07T11:16:56;99399.50;;;3.29;51.42
67740;BME280;54536;50.090;14.420;2024-01-07T11:19:23;99408.78;;;3.19;51.72
67740;BME280;54536;50.090;14.420;2024-01-07T11:21:49;99407.75;;;3.21;50.29
67740;BME280;54536;50.090;14.420;2024-01-07T11:24:37;99412.03;;;3.37;50.37
67740;BME280;54536;50.090;14.420;2024-01-07T11:27:04;99416.22;;;3.39;49.79
67740;BME280;54536;50.090;14.420;2024-01-07T11:29:31;99414.63;;;3.37;49.23
67740;BME280;54536;50.090;14.420;2024-01-07T11:31:58;99418.41;;;3.47;50.54
67740;BME280;54536;50.090;14.420;2024-01-07T11:34:41;99413.81;;;3.36;50.58
67740;BME280;54536;50.090;14.420;2024-01-07T11:37:13;99411.66;;;3.28;48.97
67740;BME280;54536;50.090;14.420;2024-01-07T11:39:46;99423.25;;;3.23;49.43
67740;BME280;54536;50.090;14.420;2024-01-07T11:42:14;99418.50;;;3.15;48.93
67740;BME280;54536;50.090;14.420;2024-01-07T11:44:54;99423.53;;;3.18;49.69
67740;BME280;54536;50.090;14.420;2024-01-07T11:47:22;99409.78;;;3.16;49.38
67740;BME280;54536;50.090;14.420;2024-01-07T11:49:49;99413.88;;;3.20;49.12
67740;BME280;54536;50.090;14.420;2024-01-07T11:52:15;99413.13;;;3.18;49.44
67740;BME280;54536;50.090;14.420;2024-01-07T11:54:41;99407.47;;;3.26;49.27
67740;BME280;54536;50.090;14.420;2024-01-07T11:57:08;99412.97;;;3.36;49.11
67740;BME280;54536;50.090;14.420;2024-01-07T11:59:36;99412.25;;;3.34;49.05
67740;BME280;54536;50.090;14.420;2024-01-07T12:02:03;99411.81;;;3.11;49.02
67740;BME280;54536;50.090;14.420;2024-01-07T12:04:33;99412.13;;;3.21;49.38
67740;BME280;54536;50.090;14.420;2024-01-07T12:07:00;99428.28;;;3.26;49.40
67740;BME280;54536;50.090;14.420;2024-01-07T12:09:27;99420.94;;;3.18;49.35
67740;BME280;54536;50.090;14.420;2024-01-07T12:11:54;99407.19;;;3.16;49.37
67740;BME280;54536;50.090;14.420;2024-01-07T12:14:21;99415.44;;;3.09;47.85
67740;BME280;54536;50.090;14.420;2024-01-07T12:16:48;99418.22;;;3.20;48.43
67740;BME280;54536;50.090;14.420;2024-01-07T12:19:14;99415.91;;;3.15;48.25
67740;BME280;54536;50.090;14.420;2024-01-07T12:21:40;99416.91;;;3.13;48.82
67740;BME280;54536;50.090;14.420;2024-01-07T12:24:07;99418.41;;;3.17;48.75
67740;BME280;54536;50.090;14.420;2024-01-07T12:26:33;99430.63;;;3.31;49.30
67740;BME280;54536;50.090;14.420;2024-01-07T12:29:00;99436.16;;;3.24;47.97
67740;BME280;54536;50.090;14.420;2024-01-07T12:31:33;99450.44;;;3.17;48.47
67740;BME280;54536;50.090;14.420;2024-01-07T12:34:01;99438.63;;;3.12;47.89
67740;BME280;54536;50.090;14.420;2024-01-07T12:36:29;99429.66;;;3.17;47.99
67740;BME280;54536;50.090;14.420;2024-01-07T12:38:56;99445.72;;;3.24;47.86
67740;BME280;54536;50.090;14.420;2024-01-07T12:41:23;99443.44;;;3.34;49.63
67740;BME280;54536;50.090;14.420;2024-01-07T12:43:49;99437.41;;;3.47;49.10
67740;BME280;54536;50.090;14.420;2024-01-07T12:46:16;99452.47;;;3.26;47.67
67740;BME280;54536;50.090;14.420;2024-01-07T12:48:42;99443.44;;;3.34;47.93
67740;BME280;54536;50.090;14.420;2024-01-07T12:51:08;99453.38;;;3.11;46.77
67740;BME280;54536;50.090;14.420;2024-01-07T12:53:35;99452.75;;;3.22;48.14
67740;BME280;54536;50.090;14.420;2024-01-07T12:56:01;99462.56;;;3.17;47.45
67740;BME280;54536;50.090;14.420;2024-01-07T12:58:28;99452.41;;;3.28;49.34
67740;BME280;54536;50.090;14.420;2024-01-07T13:00:54;99463.53;;;3.30;47.67
67740;BME280;54536;50.090;14.420;2024-01-07T13:03:20;99462.47;;;3.34;47.65